logo tempoitalia

Diretta Meteo Kosice Barca, Slovacchialunedì 31 agosto ore 07:00

Mappa
Sereno 17 °C Sereno 24 Ore: T.min 15 T.max 30
Ponente Nord Km/h 3.7 Punto di rugiada: 11 °C Umidità: 67% Visibilità: 10 Km
Il sole sorge alle: 05:50 Il sole tramonta alle: 19:20
31 Agosto 2026 07:00 tempo osservato: Sereno Sereno 17 67 1017 vento: Nord N 3.7
31 Agosto 2026 06:30 tempo osservato: Sereno Sereno 15 72 1017 vento: Nord N 1.8
31 Agosto 2026 06:00 tempo osservato: Sereno Sereno 15 76 1016 vento: Nord N 1.8
31 Agosto 2026 05:30 tempo osservato: Sereno Sereno 17 67 1016 vento: Nord N 1.8
31 Agosto 2026 05:00 tempo osservato: Sereno Sereno 17 67 1016 vento: Nord N 3.7
31 Agosto 2026 04:30 tempo osservato: Sereno Sereno 17 67 1016 vento: Nord N 5.5
31 Agosto 2026 04:00 tempo osservato: Sereno Sereno 17 67 1016 vento: Nord N 1.8
31 Agosto 2026 03:30 tempo osservato: Sereno Sereno 16 72 1016 vento: Nord N 3.7
31 Agosto 2026 03:00 tempo osservato: Sereno Sereno 18 63 1016 vento: Nord N 0
31 Agosto 2026 02:30 tempo osservato: Sereno Sereno 18 63 1016 vento: Nord N/NE 7.4
31 Agosto 2026 02:00 tempo osservato: Sereno Sereno 17 67 1016 vento: Nord N 5.5
31 Agosto 2026 01:30 tempo osservato: Sereno Sereno 18 63 1016 vento: Nord NO 9.3
31 Agosto 2026 01:00 tempo osservato: Sereno Sereno 18 63 1016 vento: Nord N 7.4
31 Agosto 2026 00:30 tempo osservato: Sereno Sereno 19 59 1016 vento: Nord N 5.5
31 Agosto 2026 00:00 tempo osservato: Sereno Sereno 20 56 1016 vento: Nord N 7.4
30 Agosto 2026 23:30 tempo osservato: Sereno Sereno 18 63 1016 vento: Nord N 0
30 Agosto 2026 23:00 tempo osservato: Sereno Sereno 20 56 1016 vento: Nord N 5.5
30 Agosto 2026 22:30 tempo osservato: Sereno Sereno 20 59 1016 vento: Nord N 1.8
30 Agosto 2026 22:00 tempo osservato: Sereno Sereno 21 56 1016 vento: Nord N 3.7
30 Agosto 2026 21:30 tempo osservato: Sereno Sereno 22 53 1016 vento: Nord N 13
30 Agosto 2026 21:00 tempo osservato: Sereno Sereno 20 59 1016 vento: Nord N 7.4
30 Agosto 2026 20:30 tempo osservato: Sereno Sereno 24 47 1015 vento: Nord N 5.5
30 Agosto 2026 20:00 tempo osservato: Sereno Sereno 25 41 1015 vento: Nord N 5.5
30 Agosto 2026 19:30 tempo osservato: Sereno Sereno 27 36 1015 vento: Nord N 5.5
30 Agosto 2026 19:00 tempo osservato: Sereno Sereno 28 32 1015 vento: Nord O/SO 7.4
30 Agosto 2026 18:30 tempo osservato: Sereno Sereno 29 32 1015 vento: Nord N 5.5
30 Agosto 2026 18:00 tempo osservato: Sereno Sereno 30 28 1015 vento: Nord N 5.5
30 Agosto 2026 17:30 tempo osservato: Sereno Sereno 30 28 1015 vento: Nord N 3.7
30 Agosto 2026 17:00 tempo osservato: Sereno Sereno 30 28 1015 vento: Nord N 11.1
30 Agosto 2026 16:30 tempo osservato: Sereno Sereno 30 28 1015 vento: Nord N 3.7
30 Agosto 2026 16:00 tempo osservato: Sereno Sereno 30 30 1015 vento: Nord N 5.5
30 Agosto 2026 15:30 tempo osservato: Sereno Sereno 29 30 1015 vento: Nord N 3.7
30 Agosto 2026 15:00 tempo osservato: Bufera di polvere o sabbia Bufera di polvere o sabbia 30 30 1015 vento: Nord SE 7.4
30 Agosto 2026 14:30 tempo osservato: Sereno Sereno 30 30 1016 vento: Nord S 7.4
30 Agosto 2026 14:00 tempo osservato: Sereno Sereno 29 32 1016 vento: Nord N 3.7
30 Agosto 2026 13:30 tempo osservato: Bufera di polvere o sabbia Bufera di polvere o sabbia 30 33 1016 vento: Nord N 3.7
30 Agosto 2026 13:00 tempo osservato: Bufera di polvere o sabbia Bufera di polvere o sabbia 29 35 1016 vento: Nord N 5.5
30 Agosto 2026 12:30 tempo osservato: Bufera di polvere o sabbia Bufera di polvere o sabbia 28 39 1016 vento: Nord N 7.4
30 Agosto 2026 12:00 tempo osservato: Bufera di polvere o sabbia Bufera di polvere o sabbia 28 42 1017 vento: Nord N 5.5
30 Agosto 2026 11:30 tempo osservato: Bufera di polvere o sabbia Bufera di polvere o sabbia 27 44 1017 vento: Nord N 5.5
30 Agosto 2026 11:00 tempo osservato: Sereno Sereno 26 44 1017 vento: Nord N 11.1
30 Agosto 2026 10:30 tempo osservato: Sereno Sereno 26 41 1017 vento: Nord E/NE 9.3
30 Agosto 2026 10:00 tempo osservato: Poco Nuvoloso Poco Nuvoloso 25 44 1017 vento: Nord NE 9.3
30 Agosto 2026 09:30 tempo osservato: Nuvoloso Nuvoloso 25 47 1017 vento: Nord N/NE 13
30 Agosto 2026 09:00 tempo osservato: Sereno Sereno 23 56 1017 vento: Nord N 5.5
30 Agosto 2026 08:30 tempo osservato: Molto Nuvoloso Molto Nuvoloso 23 56 1017 vento: Nord N 5.5
30 Agosto 2026 08:00 tempo osservato: Sereno Sereno 22 56 1017 vento: Nord N 3.7